Flight Track Log - Related Links

Times and Time Zones

All times are in EDT time to prevent confusion due to time zone crossing. See the SWA542 flight status page for this flight to view local times or setup timezone preferences in your user account.

Time Position Orientation Groundspeed Altitude Reporting Facility
EDT Latitude Longitude Course Direction KTS MPH feet Rate Location/Type
Thu 03:19:13 PM 37.7706 -122.3181 310° West 201 231 2,900  Level Oakland Center
Thu 03:20:14 PM 37.8081 -122.3767 309° West 211 243 4,700 2,683 Climbing Oakland Center
Thu 03:21:16 PM 37.8583 -122.4139 330° Northwest 226 260 8,400 3,268 Climbing Oakland Center
Thu 03:22:17 PM 37.9217 -122.4389 343° North 237 273 11,400 2,878 Climbing Oakland Center
Thu 03:23:19 PM 38.0083 -122.4594 349° North 276 318 14,300 2,098 Climbing Oakland Center
Thu 03:24:20 PM 38.1025 -122.4597 360° North 338 389 15,700 1,721 Climbing Oakland Center
Thu 03:25:21 PM 38.2117 -122.4622 359° North 390 449 17,800 2,488 Climbing Oakland Center
Thu 03:26:23 PM 38.3233 -122.4636 359° North 401 461 20,800 2,878 Climbing Oakland Center
Thu 03:27:24 PM 38.4339 -122.4650 359° North 399 459 23,700 2,537 Climbing Oakland Center
Thu 03:28:26 PM 38.5428 -122.4661 360° North 393 452 26,000 1,122 Climbing Oakland Center
Thu 03:29:27 PM 38.6597 -122.4789 355° North 418 481 26,000  Level Oakland Center
Thu 03:30:28 PM 38.7889 -122.4950 354° North 434 499 26,000 341 Level Oakland Center
Thu 03:31:30 PM 38.9103 -122.5075 355° North 435 501 26,700 1,073 Climbing Oakland Center
Thu 03:32:31 PM 39.0303 -122.5219 355° North 433 498 28,200 1,707 Climbing Oakland Center
Thu 03:33:33 PM 39.1800 -122.5369 356° North 445 512 30,200 1,756 Climbing Oakland Center
Thu 03:34:34 PM 39.2858 -122.5461 356° North 445 512 31,800 1,770 Climbing Oakland Center
Thu 03:35:35 PM 39.4311 -122.5464 360° North 437 503 33,800 1,610 Climbing Oakland Center
Thu 03:36:37 PM 39.5517 -122.5458 360° North 434 499 35,100 1,366 Climbing Oakland Center
Thu 03:37:38 PM 39.6722 -122.5469 360° North 433 498 36,600 1,171 Climbing Oakland Center
Thu 03:38:40 PM 39.7931 -122.5497 359° North 433 498 37,500 683 Climbing Oakland Center
Thu 03:39:41 PM 39.9153 -122.5497 360° North 436 502 38,000 244 Climbing Oakland Center
Thu 03:40:43 PM 40.0367 -122.5511 359° North 433 498 38,000  Level Oakland Center
Thu 03:41:44 PM 40.1611 -122.5525 360° North 438 504 38,000  Level Oakland Center
Thu 03:42:45 PM 40.2839 -122.5519 360° North 434 499 38,000  Level Oakland Center
Thu 03:43:47 PM 40.4056 -122.5525 360° North 433 498 38,000  Level Oakland Center
Thu 03:44:48 PM 40.5261 -122.5539 359° North 431 496 38,000  Level Oakland Center
Thu 03:45:49 PM 40.6464 -122.5525 North 432 497 38,000  Level Oakland Center
Thu 03:46:51 PM 40.7658 -122.5531 360° North 430 495 38,000  Level Oakland Center
Thu 03:47:52 PM 40.9100 -122.5533 360° North 431 496 38,000  Level Oakland Center
Thu 03:48:54 PM 41.0283 -122.5536 360° North 427 491 38,000  Level Oakland Center
Thu 03:49:55 PM 41.1467 -122.5564 359° North 429 494 38,000  Level Oakland Center
Thu 03:50:56 PM 41.2667 -122.5586 359° North 430 495 38,000  Level Oakland Center
Thu 03:51:58 PM 41.3733 -122.5550 North 430 495 38,000  Level Oakland Center
Thu 03:52:59 PM 41.4950 -122.5561 360° North 435 501 38,000  Level Oakland Center
Thu 03:53:43 PM 41.5936 -122.5622 357° North 434 499 38,000  Level Seattle Center
Thu 03:54:44 PM 41.7144 -122.5611 360° North 433 498 38,000  Level Seattle Center
Thu 03:55:45 PM 41.8356 -122.5619 360° North 434 499 38,000  Level Seattle Center
Thu 03:56:46 PM 41.9561 -122.5622 360° North 433 498 38,000  Level Seattle Center
Thu 03:57:47 PM 42.0761 -122.5658 359° North 429 494 38,000  Level Seattle Center
Thu 03:58:48 PM 42.1958 -122.5658 360° North 433 498 38,000  Level Seattle Center
Thu 03:59:49 PM 42.3167 -122.5639 North 431 496 38,000  Level Seattle Center
Thu 04:00:50 PM 42.4367 -122.5658 359° North 429 494 38,000  Level Seattle Center
Thu 04:01:51 PM 42.5561 -122.5650 360° North 429 494 38,000  Level Seattle Center
Thu 04:02:52 PM 42.7006 -122.5658 360° North 431 496 38,000  Level Seattle Center
Thu 04:03:53 PM 42.8128 -122.5669 360° North 428 493 38,000  Level Seattle Center
Thu 04:04:54 PM 42.9322 -122.5681 360° North 428 493 38,000  Level Seattle Center
Thu 04:05:55 PM 43.0517 -122.5689 360° North 431 496 38,000  Level Seattle Center
Thu 04:06:55 PM 43.1711 -122.5700 360° North 430 495 38,000  Level Seattle Center
Thu 04:07:56 PM 43.2894 -122.5717 359° North 430 495 38,000  Level Seattle Center
Thu 04:08:57 PM 43.4086 -122.5714 360° North 428 493 38,000  Level Seattle Center
Thu 04:09:58 PM 43.5294 -122.5725 360° North 434 499 38,000  Level Seattle Center
Thu 04:10:59 PM 43.6489 -122.5753 359° North 433 498 38,000  Level Seattle Center
Thu 04:12:00 PM 43.7933 -122.5742 360° North 435 501 38,000  Level Seattle Center
Thu 04:13:01 PM 43.9144 -122.5747 360° North 438 504 38,000  Level Seattle Center
Thu 04:14:02 PM 44.0331 -122.5775 359° North 433 498 38,000  Level Seattle Center
Thu 04:15:03 PM 44.1531 -122.5778 360° North 435 501 38,000  Level Seattle Center
Thu 04:16:03 PM 44.2714 -122.5786 360° North 430 495 38,000  Level Seattle Center
Thu 04:17:04 PM 44.3911 -122.5808 359° North 432 497 38,000  Level Seattle Center
Thu 04:18:05 PM 44.5103 -122.5811 360° North 431 496 38,000  Level Seattle Center
Thu 04:19:06 PM 44.6306 -122.5831 359° North 434 499 38,000  Level Seattle Center
Thu 04:20:07 PM 44.7508 -122.5831 360° North 434 499 38,000  Level Seattle Center
Thu 04:21:08 PM 44.8661 -122.5844 360° North 431 496 38,000  Level Seattle Center
Thu 04:22:09 PM 45.0111 -122.5872 359° North 435 501 38,000  Level Seattle Center
Thu 04:23:10 PM 45.1281 -122.5878 360° North 428 493 38,000  Level Seattle Center
Thu 04:24:11 PM 45.2461 -122.5867 360° North 429 494 38,000  Level Seattle Center
Thu 04:25:12 PM 45.3647 -122.5892 359° North 429 494 38,000  Level Seattle Center
Thu 04:26:13 PM 45.4839 -122.5892 360° North 429 494 38,000  Level Seattle Center
Thu 04:27:14 PM 45.6022 -122.5900 360° North 429 494 38,000  Level Seattle Center
Thu 04:28:15 PM 45.7225 -122.5919 359° North 432 497 38,000  Level Seattle Center
Thu 04:29:16 PM 45.8389 -122.6136 353° North 426 490 38,000 -295 Level Seattle Center
Thu 04:30:17 PM 45.9539 -122.6414 350° North 423 487 37,400 -1,672 Descending Seattle Center
Thu 04:31:18 PM 46.0706 -122.6728 349° North 425 489 34,600 -3,393 Descending Seattle Center
Thu 04:32:19 PM 46.2106 -122.7014 352° North 427 491 30,500 -2,951 Descending Seattle Center
Thu 04:34:21 PM 46.4261 -122.7283 355° North 417 480 25,600 -2,557 Descending Seattle Center
Thu 04:35:22 PM 46.5533 -122.7314 359° North 389 448 22,700 -2,500 Descending Seattle Center
Thu 04:36:33 PM 46.6700 -122.7353 359° North 360 414 20,100 -1,900 Descending Seattle Center
Thu 04:37:22 PM 46.7511 -122.7403 358° North 347 399 18,900 -1,269 Descending Seattle Center
Thu 04:38:17 PM 46.8242 -122.6947 23° Northeast 360 414 17,900 -1,125 Descending Seattle Center
Thu 04:38:26 PM 46.8361 -122.6769 46° Northeast 392 451 17,700 -1,971 Descending Seattle Center
Thu 04:39:27 PM 46.9189 -122.5839 38° Northeast 348 400 15,600 -1,820 Descending Seattle Center
Thu 04:40:28 PM 47.0006 -122.5339 23° Northeast 312 359 14,000 -1,574 Descending Seattle Center
Thu 04:41:29 PM 47.0806 -122.4992 16° North 301 346 12,400 -1,525 Descending Seattle Center
Thu 04:42:26 PM 47.1575 -122.4856 North 295 339 11,000 -1,377 Descending Seattle Center
Thu 04:42:30 PM 47.1628 -122.4847 North 298 343 11,000 -1,082 Level Seattle Center
Thu 04:43:27 PM 47.2389 -122.4736 North 275 316 9,900 -1,082 Descending Seattle Center
Thu 04:43:31 PM 47.2378 -122.4722 140° Southeast 273 314 9,900 -1,300 Level Seattle Center
Thu 04:44:27 PM 47.3156 -122.4611 North 276 318 8,600 -1,279 Descending Seattle Center
Thu 04:44:32 PM 47.3214 -122.4603 North 279 321 8,600 -885 Level Seattle Center
Thu 04:45:28 PM 47.3872 -122.4544 North 253 291 7,700 -984 Descending Seattle Center
Thu 04:45:33 PM 47.3933 -122.4531 North 263 303 7,600 -1,273 Descending Seattle Center
Thu 04:46:34 PM 47.4614 -122.4539 360° North 246 283 6,300 -787 Descending Seattle Center
Thu 04:47:35 PM 47.5278 -122.4550 359° North 239 275 6,000 -615 Descending Seattle Center
Thu 04:48:31 PM 47.5875 -122.4561 359° North 226 260 5,100 -984 Descending Seattle Center
Thu 04:48:36 PM 47.5908 -122.4550 13° North 228 262 5,000 -716 Descending Seattle Center
Thu 04:49:38 PM 47.6461 -122.4403 10° North 210 242 4,300 -672 Descending Seattle Center
Thu 04:50:32 PM 47.6475 -122.3672 88° East 185 213 3,700 -689 Descending Seattle Center
Thu 04:50:39 PM 47.6469 -122.3564 94° East 188 216 3,600 -689 Descending Seattle Center
Thu 04:51:33 PM 47.6122 -122.3242 148° Southeast 170 196 3,000 -492 Descending Seattle Center
Thu 04:51:40 PM 47.6053 -122.3203 159° South 171 197 3,100 -590 Climbing Seattle Center
Thu 04:52:34 PM 47.5639 -122.3181 178° South 161 185 2,400 -689 Descending Seattle Center
Thu 04:52:41 PM 47.5608 -122.3169 166° South 165 190 2,400 -655 Level Seattle Center
Thu 04:53:29 PM 47.5303 -122.3169 180° South 142 163 1,800 -787 Descending Seattle Center
Thu 04:53:42 PM 47.5214 -122.3178 184° South 147 169 1,600 -800 Descending Seattle Center
Thu 04:54:29 PM 47.4908 -122.3192 182° South 132 152 1,000 -787 Descending Seattle Center
Thu 04:54:43 PM 47.4811 -122.3181 176° South 137 158 800 -480 Descending Seattle Center
Thu 04:55:44 PM 47.4492 -122.3186 181° South 137 158 400 -393 Descending Seattle Center

Login

Don't have an account? Register now (free) for customized features, flight alerts, and more!